createdAt,value
2023-11-21T00:00:30.103Z,14.3
2023-11-21T00:15:54.458Z,15.2
2023-11-21T00:31:19.160Z,14.2
2023-11-21T00:46:44.149Z,15.5
2023-11-21T01:02:09.355Z,14.7
2023-11-21T01:17:34.762Z,16.8
2023-11-21T01:33:00.005Z,17.3
2023-11-21T01:48:25.792Z,19.3
2023-11-21T02:03:51.010Z,18.9
2023-11-21T02:19:16.356Z,21.9
2023-11-21T02:34:41.616Z,22.5
2023-11-21T02:50:07.102Z,23.2
2023-11-21T03:05:31.893Z,24.2
2023-11-21T03:20:57.341Z,26
2023-11-21T03:36:22.515Z,27.7
2023-11-21T03:51:48.178Z,28.3
2023-11-21T04:07:13.696Z,31.9
2023-11-21T04:22:38.599Z,29.5
2023-11-21T04:38:03.867Z,30.6
2023-11-21T04:53:29.044Z,26.5
2023-11-21T05:08:53.989Z,25
2023-11-21T05:24:19.132Z,22
2023-11-21T05:39:44.451Z,19.8
2023-11-21T05:55:11.887Z,18.9
2023-11-21T06:10:37.366Z,16.6
2023-11-21T06:26:02.486Z,15.1
2023-11-21T06:41:28.138Z,12.6
2023-11-21T06:56:52.815Z,6.4
2023-11-21T07:12:17.301Z,8.1
2023-11-21T07:27:41.900Z,5
2023-11-21T07:43:06.739Z,6.9
2023-11-21T07:58:31.438Z,8.7
2023-11-21T08:13:56.648Z,9.6
2023-11-21T08:29:21.724Z,10.4
2023-11-21T08:44:46.759Z,8.8
2023-11-21T09:00:11.310Z,9.8
2023-11-21T09:15:36.311Z,10.3
2023-11-21T09:31:00.972Z,10
2023-11-21T09:46:26.079Z,10
2023-11-21T10:01:51.623Z,9.2
2023-11-21T10:17:17.335Z,8.8
2023-11-21T10:32:42.865Z,7.4
2023-11-21T10:48:08.662Z,7.3
2023-11-21T11:03:33.766Z,6.9
2023-11-21T11:18:58.588Z,7.1
2023-11-21T11:34:23.905Z,7.1
2023-11-21T11:49:48.805Z,6.8
2023-11-21T12:05:14.401Z,8
2023-11-21T12:20:39.496Z,6.2
2023-11-21T12:36:06.102Z,7.1
2023-11-21T12:51:31.308Z,7.1
2023-11-21T13:06:55.984Z,7.8
2023-11-21T13:22:20.442Z,6.9
2023-11-21T13:37:45.665Z,6.4
2023-11-21T13:53:10.841Z,5.6
2023-11-21T14:08:36.241Z,5.5
2023-11-21T14:24:00.940Z,5.8
2023-11-21T14:39:25.886Z,5.5
2023-11-21T14:54:51.134Z,5.4
2023-11-21T15:10:17.284Z,5.6
2023-11-21T15:25:42.103Z,5.5
2023-11-21T15:41:07.239Z,6.2
2023-11-21T15:56:32.706Z,5.8
2023-11-21T16:11:57.550Z,5.9
2023-11-21T16:27:22.143Z,6
2023-11-21T16:42:47.126Z,6.9
2023-11-21T16:58:12.277Z,5.3
2023-11-21T17:13:37.528Z,5.5
2023-11-21T17:29:02.918Z,5.8
2023-11-21T17:44:27.504Z,5.5
2023-11-21T17:59:52.666Z,6.4
2023-11-21T18:15:17.801Z,6.4
2023-11-21T18:30:42.392Z,6.2
2023-11-21T18:46:07.844Z,5.6
2023-11-21T19:01:33.357Z,6.5
2023-11-21T19:16:59.047Z,6.3
2023-11-21T19:32:24.565Z,7.1
2023-11-21T19:47:50.221Z,5.5
2023-11-21T20:03:15.385Z,4.5
2023-11-21T20:18:40.483Z,4.7
2023-11-21T20:34:05.311Z,4.6
2023-11-21T20:49:47.755Z,5.2
2023-11-21T21:05:15.223Z,6.5
2023-11-21T21:20:41.050Z,4.2
2023-11-21T21:36:06.109Z,4.2
2023-11-21T21:51:31.307Z,4.2
2023-11-21T22:06:56.514Z,4.8
2023-11-21T22:22:22.866Z,6.2
2023-11-21T22:37:49.999Z,5
2023-11-21T22:53:15.248Z,4.6
2023-11-21T23:08:40.519Z,4.3
2023-11-21T23:24:05.357Z,5.3
2023-11-21T23:39:29.683Z,4.7
2023-11-21T23:54:54.384Z,4.8
